createdAt,value
2018-07-28T00:02:04.884Z,29.10
2018-07-28T00:04:33.192Z,29.40
2018-07-28T00:07:01.526Z,29.20
2018-07-28T00:09:29.891Z,29.10
2018-07-28T00:11:58.202Z,29.00
2018-07-28T00:14:26.531Z,28.90
2018-07-28T00:16:54.910Z,28.90
2018-07-28T00:19:23.163Z,28.80
2018-07-28T00:21:51.514Z,28.80
2018-07-28T00:24:19.898Z,28.80
2018-07-28T00:26:48.222Z,28.70
2018-07-28T00:29:16.498Z,28.60
2018-07-28T00:31:44.901Z,29.00
2018-07-28T00:34:14.753Z,28.80
2018-07-28T00:36:43.041Z,28.70
2018-07-28T00:39:13.607Z,28.60
2018-07-28T00:41:42.063Z,28.90
2018-07-28T00:44:10.347Z,28.70
2018-07-28T00:49:07.310Z,28.50
2018-07-28T00:51:35.933Z,28.40
2018-07-28T00:54:04.313Z,28.40
2018-07-28T00:56:32.911Z,28.30
2018-07-28T00:59:01.234Z,28.30
2018-07-28T01:01:29.710Z,28.20
2018-07-28T01:03:58.053Z,28.20
2018-07-28T01:06:26.382Z,28.20
2018-07-28T01:08:54.738Z,28.20
2018-07-28T01:13:51.422Z,28.00
2018-07-28T01:16:19.761Z,28.00
2018-07-28T01:18:48.061Z,28.00
2018-07-28T01:23:44.486Z,27.90
2018-07-28T01:26:12.863Z,27.80
2018-07-28T01:28:41.180Z,27.80
2018-07-28T01:31:09.531Z,27.80
2018-07-28T01:33:37.856Z,28.10
2018-07-28T01:36:06.239Z,27.90
2018-07-28T01:38:34.620Z,27.80
2018-07-28T01:41:02.946Z,27.70
2018-07-28T01:43:31.240Z,27.60
2018-07-28T01:45:59.604Z,27.60
2018-07-28T01:48:27.901Z,27.60
2018-07-28T01:50:56.256Z,27.60
2018-07-28T01:53:24.578Z,27.50
2018-07-28T01:55:52.894Z,27.50
2018-07-28T01:58:21.178Z,27.40
2018-07-28T02:00:49.566Z,27.40
2018-07-28T02:03:17.828Z,27.40
2018-07-28T02:05:46.127Z,27.30
2018-07-28T02:08:14.488Z,27.30
2018-07-28T02:10:42.830Z,27.30
2018-07-28T02:13:11.118Z,27.30
2018-07-28T02:15:39.489Z,27.60
2018-07-28T02:18:07.797Z,27.40
2018-07-28T02:20:36.093Z,27.20
2018-07-28T02:23:04.466Z,27.10
2018-07-28T02:25:32.766Z,27.40
2018-07-28T02:28:01.073Z,27.50
2018-07-28T02:30:29.434Z,27.30
2018-07-28T02:32:57.770Z,27.10
2018-07-28T02:35:26.071Z,27.10
2018-07-28T02:37:54.415Z,27.00
2018-07-28T02:40:22.706Z,26.90
2018-07-28T02:42:51.012Z,26.80
2018-07-28T02:47:47.403Z,26.80
2018-07-28T02:50:15.718Z,26.80
2018-07-28T02:52:44.034Z,26.80
2018-07-28T02:55:12.376Z,26.80
2018-07-28T02:57:40.698Z,26.80
2018-07-28T03:00:09.506Z,26.70
2018-07-28T03:02:37.911Z,26.70
2018-07-28T03:05:07.044Z,26.60
2018-07-28T03:10:03.489Z,26.90
2018-07-28T03:12:31.816Z,26.80
2018-07-28T03:15:00.179Z,26.70
2018-07-28T03:17:28.559Z,26.60
2018-07-28T03:19:56.847Z,26.50
2018-07-28T03:22:25.214Z,26.40
2018-07-28T03:24:53.569Z,26.40
2018-07-28T03:27:26.979Z,26.30
2018-07-28T03:29:55.321Z,26.30
2018-07-28T03:32:23.620Z,26.30
2018-07-28T03:34:51.905Z,26.30
2018-07-28T03:37:20.264Z,26.30
2018-07-28T03:39:48.554Z,26.20
2018-07-28T03:42:16.893Z,26.20
2018-07-28T03:44:45.257Z,26.30
2018-07-28T03:47:13.553Z,26.20
2018-07-28T03:49:41.844Z,26.20
2018-07-28T03:52:10.193Z,26.10
2018-07-28T03:54:38.514Z,26.10
2018-07-28T03:57:06.877Z,26.20
2018-07-28T03:59:35.203Z,26.50
2018-07-28T04:02:03.531Z,26.30
2018-07-28T04:06:59.923Z,26.10
2018-07-28T04:09:28.227Z,26.10
2018-07-28T04:11:56.591Z,26.10
2018-07-28T04:14:24.999Z,26.10
2018-07-28T04:16:53.281Z,26.00
2018-07-28T04:19:21.585Z,26.10
2018-07-28T04:21:49.949Z,26.10
2018-07-28T04:24:18.265Z,26.10
2018-07-28T04:26:46.584Z,26.10
2018-07-28T04:29:14.936Z,26.10
2018-07-28T04:31:43.252Z,26.10
2018-07-28T04:34:11.566Z,26.40
2018-07-28T04:36:39.940Z,26.30
2018-07-28T04:39:09.637Z,26.20
2018-07-28T04:41:38.651Z,26.20
2018-07-28T04:44:07.145Z,26.20
2018-07-28T04:46:35.693Z,26.20
2018-07-28T04:49:03.952Z,26.20
2018-07-28T04:51:32.341Z,26.20
2018-07-28T04:54:00.629Z,26.20
2018-07-28T04:56:28.932Z,26.10
2018-07-28T04:58:57.373Z,26.20
2018-07-28T05:01:25.709Z,26.10
2018-07-28T05:03:54.009Z,26.10
2018-07-28T05:06:22.342Z,26.10
2018-07-28T05:08:50.712Z,26.00
2018-07-28T05:11:19.048Z,26.40
2018-07-28T05:13:47.421Z,26.20
2018-07-28T05:16:15.792Z,26.10
2018-07-28T05:18:44.598Z,26.10
2018-07-28T05:21:13.401Z,26.00
2018-07-28T05:26:09.799Z,26.20
2018-07-28T05:28:38.193Z,26.10
2018-07-28T05:31:06.685Z,26.00
2018-07-28T05:33:35.014Z,26.00
2018-07-28T05:36:03.340Z,26.00
2018-07-28T05:38:31.688Z,26.30
2018-07-28T05:41:00.021Z,26.20
2018-07-28T05:43:28.377Z,26.20
2018-07-28T05:45:56.775Z,26.20
2018-07-28T05:48:25.103Z,26.60
2018-07-28T05:50:53.509Z,26.80
2018-07-28T05:53:21.809Z,26.60
2018-07-28T05:55:50.153Z,26.60
2018-07-28T05:58:18.505Z,26.50
2018-07-28T06:00:46.841Z,26.40
2018-07-28T06:03:15.181Z,26.40
2018-07-28T06:05:43.480Z,26.40
2018-07-28T06:08:11.837Z,26.40
2018-07-28T06:10:40.120Z,26.40
2018-07-28T06:13:08.460Z,26.50
2018-07-28T06:15:36.771Z,26.50
2018-07-28T06:18:05.245Z,26.50
2018-07-28T06:20:33.589Z,26.50
2018-07-28T06:25:29.984Z,26.60
2018-07-28T06:27:58.359Z,26.50
2018-07-28T06:30:26.684Z,26.60
2018-07-28T06:35:23.165Z,26.50
2018-07-28T06:37:51.501Z,26.60
2018-07-28T06:40:19.826Z,26.60
2018-07-28T06:42:48.152Z,26.60
2018-07-28T06:45:16.453Z,26.60
2018-07-28T06:47:44.737Z,26.60
2018-07-28T06:50:13.108Z,26.60
2018-07-28T06:52:41.449Z,26.60
2018-07-28T06:55:09.759Z,26.60
2018-07-28T06:57:38.114Z,26.60
2018-07-28T07:00:08.256Z,26.60
2018-07-28T07:02:36.670Z,26.60
2018-07-28T07:05:06.215Z,27.00
2018-07-28T07:07:34.582Z,27.00
2018-07-28T07:10:04.764Z,26.90
2018-07-28T07:12:33.173Z,27.00
2018-07-28T07:15:01.496Z,27.00
2018-07-28T07:17:29.838Z,27.00
2018-07-28T07:19:58.160Z,27.00
2018-07-28T07:22:26.484Z,27.00
2018-07-28T07:24:54.860Z,27.00
2018-07-28T07:27:23.201Z,27.00
2018-07-28T07:29:51.544Z,27.00
2018-07-28T07:32:19.888Z,27.00
2018-07-28T07:34:48.257Z,27.00
2018-07-28T07:37:16.614Z,27.00
2018-07-28T07:39:47.038Z,27.00
2018-07-28T07:42:15.627Z,27.10
2018-07-28T07:44:43.923Z,27.00
2018-07-28T07:47:12.319Z,27.10
2018-07-28T07:49:40.629Z,27.10
2018-07-28T07:52:08.994Z,27.10
2018-07-28T07:54:37.797Z,27.50
2018-07-28T07:57:06.785Z,27.70
2018-07-28T07:59:35.217Z,27.50
2018-07-28T08:02:04.076Z,27.50
2018-07-28T08:04:32.451Z,27.90
2018-07-28T08:07:00.853Z,27.80
2018-07-28T08:09:29.170Z,27.70
2018-07-28T08:12:15.476Z,27.60
2018-07-28T08:14:43.837Z,27.90
2018-07-28T08:17:12.182Z,27.80
2018-07-28T08:19:40.514Z,27.90
2018-07-28T08:22:08.933Z,27.90
2018-07-28T08:24:37.297Z,28.00
2018-07-28T08:27:05.659Z,28.00
2018-07-28T08:29:33.989Z,27.90
2018-07-28T08:32:02.304Z,27.90
2018-07-28T08:34:30.681Z,27.90
2018-07-28T08:36:59.432Z,27.90
2018-07-28T08:39:27.832Z,27.90
2018-07-28T08:41:57.006Z,27.90
2018-07-28T08:44:25.362Z,27.90
2018-07-28T08:46:54.137Z,27.80
2018-07-28T08:49:22.620Z,27.80
2018-07-28T08:51:51.021Z,27.70
2018-07-28T08:57:47.460Z,27.80
2018-07-28T09:00:15.867Z,27.80
2018-07-28T09:02:44.282Z,28.00
2018-07-28T09:05:12.720Z,27.90
2018-07-28T09:07:41.861Z,27.90
2018-07-28T09:10:10.674Z,27.90
2018-07-28T09:12:39.011Z,28.00
2018-07-28T09:15:08.298Z,28.00
2018-07-28T09:17:36.612Z,28.00
2018-07-28T09:20:05.161Z,28.00
2018-07-28T09:22:33.561Z,28.10
2018-07-28T09:25:01.842Z,28.10
2018-07-28T09:27:30.266Z,28.20
2018-07-28T09:29:58.759Z,28.50
2018-07-28T09:32:27.107Z,28.50
2018-07-28T09:34:55.497Z,28.80
2018-07-28T09:37:23.880Z,28.80
2018-07-28T09:39:52.229Z,28.70
2018-07-28T09:42:20.597Z,28.80
2018-07-28T09:44:48.911Z,29.00
2018-07-28T09:47:17.280Z,29.10
2018-07-28T09:49:45.692Z,29.20
2018-07-28T09:52:14.086Z,29.30
2018-07-28T09:54:42.443Z,29.40
2018-07-28T09:57:10.856Z,29.60
2018-07-28T09:59:39.162Z,29.80
2018-07-28T10:02:07.852Z,30.00
2018-07-28T10:04:36.181Z,30.30
2018-07-28T10:07:04.632Z,30.50
2018-07-28T10:09:32.999Z,30.30
2018-07-28T10:12:01.434Z,30.10
2018-07-28T10:14:29.820Z,29.90
2018-07-28T10:16:58.160Z,29.70
2018-07-28T10:19:26.571Z,29.80
2018-07-28T10:21:54.924Z,29.80
2018-07-28T10:24:23.226Z,29.90
2018-07-28T10:26:51.664Z,29.90
2018-07-28T10:29:20.027Z,30.00
2018-07-28T10:31:48.408Z,30.20
2018-07-28T10:34:16.769Z,30.50
2018-07-28T10:36:45.142Z,30.20
2018-07-28T10:39:14.503Z,30.10
2018-07-28T10:41:42.995Z,30.00
2018-07-28T10:44:11.354Z,29.80
2018-07-28T10:46:39.727Z,29.60
2018-07-28T10:49:08.111Z,29.30
2018-07-28T10:51:36.487Z,29.00
2018-07-28T10:54:04.913Z,28.90
2018-07-28T10:56:33.357Z,29.20
2018-07-28T10:59:01.718Z,29.30
2018-07-28T11:01:30.270Z,29.00
2018-07-28T11:03:58.734Z,28.80
2018-07-28T11:06:27.473Z,28.70
2018-07-28T11:08:57.442Z,28.50
2018-07-28T11:11:25.826Z,28.40
2018-07-28T11:14:16.694Z,28.70
2018-07-28T11:17:53.276Z,28.70
2018-07-28T11:20:26.934Z,28.60
2018-07-28T11:25:53.204Z,28.50
2018-07-28T11:28:21.809Z,28.30
2018-07-28T11:30:50.477Z,28.20
2018-07-28T11:34:28.089Z,28.10
2018-07-28T12:44:18.598Z,26.60
2018-07-28T12:46:48.161Z,26.60
2018-07-28T12:49:16.872Z,27.10
2018-07-28T13:13:20.364Z,27.50
2018-07-28T13:15:48.765Z,28.00
2018-07-28T13:18:17.135Z,28.90
2018-07-28T13:20:45.678Z,29.60
2018-07-28T13:23:19.968Z,31.40
2018-07-28T13:25:48.262Z,33.40
2018-07-28T13:28:16.711Z,33.60
2018-07-28T13:31:11.743Z,34.30
2018-07-28T13:33:41.560Z,34.80
2018-07-28T13:36:12.706Z,34.60
2018-07-28T13:38:42.512Z,33.70
2018-07-28T13:41:10.946Z,32.40
2018-07-28T13:43:39.448Z,32.30
2018-07-28T13:46:08.012Z,35.20
2018-07-28T13:48:36.557Z,37.40
2018-07-28T13:51:04.970Z,38.70
2018-07-28T13:53:33.492Z,40.10
2018-07-28T13:56:02.019Z,40.60
2018-07-28T13:58:32.284Z,40.80
2018-07-28T14:01:21.695Z,42.00
2018-07-28T14:03:52.436Z,42.60
2018-07-28T14:06:24.041Z,43.60
2018-07-28T14:08:53.190Z,43.70
2018-07-28T14:11:21.634Z,43.90
2018-07-28T14:13:50.100Z,44.60
2018-07-28T14:16:21.267Z,44.90
2018-07-28T14:18:49.738Z,42.00
2018-07-28T14:21:18.381Z,39.60
2018-07-28T14:23:51.231Z,37.80
2018-07-28T14:26:23.288Z,36.50
2018-07-28T14:28:51.743Z,35.80
2018-07-28T14:31:32.030Z,35.90
2018-07-28T14:34:10.803Z,38.10
2018-07-28T14:36:41.302Z,39.10
2018-07-28T14:39:14.881Z,37.70
2018-07-28T14:41:48.491Z,36.10
2018-07-28T14:44:17.774Z,35.90
2018-07-28T14:49:25.101Z,34.80
2018-07-28T14:51:54.647Z,33.80
2018-07-28T14:54:42.790Z,33.40
2018-07-28T14:57:12.284Z,33.70
2018-07-28T14:59:47.189Z,36.60
2018-07-28T15:02:20.693Z,37.40
2018-07-28T15:04:50.177Z,38.40
2018-07-28T15:07:19.527Z,40.10
2018-07-28T15:09:48.013Z,39.70
2018-07-28T15:12:16.409Z,38.30
2018-07-28T15:14:44.812Z,36.90
2018-07-28T15:17:13.329Z,35.90
2018-07-28T15:19:43.012Z,34.70
2018-07-28T15:22:11.405Z,32.40
2018-07-28T15:24:39.862Z,29.80
2018-07-28T15:27:13.343Z,25.90
2018-07-28T15:29:42.975Z,24.00
2018-07-28T15:32:30.855Z,23.70
2018-07-28T15:35:12.704Z,24.30
2018-07-28T15:38:00.096Z,24.50
2018-07-28T15:40:29.450Z,24.60
2018-07-28T15:43:43.635Z,24.70
2018-07-28T16:24:49.973Z,23.20
2018-07-28T16:27:39.148Z,23.20
2018-07-28T16:30:09.207Z,23.20
2018-07-28T16:32:37.604Z,23.20
2018-07-28T16:35:06.538Z,23.20
2018-07-28T16:37:46.426Z,23.20
2018-07-28T16:40:15.030Z,23.00
2018-07-28T16:42:57.878Z,22.90
2018-07-28T16:45:26.305Z,22.80
2018-07-28T16:48:07.207Z,22.80
2018-07-28T16:50:41.088Z,23.00
2018-07-28T16:55:39.881Z,23.00
2018-07-28T16:58:09.936Z,22.90
2018-07-28T17:00:38.431Z,22.90
2018-07-28T17:03:07.656Z,22.90
2018-07-28T17:05:37.488Z,22.90
2018-07-28T17:08:05.920Z,22.80
2018-07-28T17:10:34.368Z,22.70
2018-07-28T17:13:02.975Z,22.80
2018-07-28T17:15:32.189Z,22.70
2018-07-28T17:18:00.526Z,22.80
2018-07-28T17:20:29.707Z,22.80
2018-07-28T17:22:58.122Z,22.80
2018-07-28T17:25:26.553Z,22.70
2018-07-28T17:27:55.062Z,22.80
2018-07-28T17:30:23.611Z,22.70
2018-07-28T17:32:51.963Z,22.70
2018-07-28T17:35:20.349Z,22.70
2018-07-28T17:37:48.745Z,22.70
2018-07-28T17:40:17.205Z,22.70
2018-07-28T17:42:45.700Z,22.70
2018-07-28T17:45:14.053Z,22.70
2018-07-28T17:47:42.425Z,22.60
2018-07-28T17:50:13.299Z,22.70
2018-07-28T17:52:41.695Z,22.70
2018-07-28T17:55:10.319Z,22.60
2018-07-28T17:57:38.830Z,22.90
2018-07-28T18:00:08.321Z,22.90
2018-07-28T18:02:36.733Z,23.00
2018-07-28T18:05:05.680Z,22.70
2018-07-28T18:07:34.217Z,22.80
2018-07-28T18:10:02.571Z,22.80
2018-07-28T18:12:30.948Z,22.80
2018-07-28T18:14:59.296Z,22.80
2018-07-28T18:17:27.744Z,22.70
2018-07-28T18:19:56.170Z,22.50
2018-07-28T18:22:24.588Z,22.40
2018-07-28T18:24:53.427Z,22.60
2018-07-28T18:27:21.913Z,22.80
2018-07-28T18:29:50.262Z,22.80
2018-07-28T18:32:21.655Z,22.60
2018-07-28T18:34:50.415Z,22.50
2018-07-28T18:37:18.815Z,22.50
2018-07-28T18:39:47.666Z,22.40
2018-07-28T18:42:16.025Z,22.40
2018-07-28T18:44:44.432Z,22.30
2018-07-28T18:47:13.137Z,22.30
2018-07-28T18:49:41.602Z,22.20
2018-07-28T18:52:11.220Z,22.30
2018-07-28T18:54:40.860Z,22.20
2018-07-28T18:57:10.035Z,22.30
2018-07-28T19:02:06.708Z,22.10
2018-07-28T19:04:35.298Z,22.00
2018-07-28T19:07:10.874Z,21.70
2018-07-28T19:09:52.129Z,21.60
2018-07-28T19:12:42.608Z,21.60
2018-07-28T19:15:11.098Z,21.40
2018-07-28T19:17:57.514Z,21.30
2018-07-28T19:20:25.928Z,21.30
2018-07-28T19:23:14.812Z,21.10
2018-07-28T19:25:43.208Z,21.20
2018-07-28T19:28:29.342Z,21.00
2018-07-28T19:30:57.815Z,21.00
2018-07-28T19:33:26.189Z,21.00
2018-07-28T19:36:12.653Z,21.00
2018-07-28T19:38:41.869Z,21.00
2018-07-28T19:41:10.543Z,20.90
2018-07-28T19:43:41.275Z,20.90
2018-07-28T19:46:10.018Z,21.00
2018-07-28T19:48:38.383Z,21.00
2018-07-28T19:51:07.260Z,21.00
2018-07-28T19:53:35.643Z,21.00
2018-07-28T19:56:04.070Z,20.90
2018-07-28T19:58:32.498Z,20.90
2018-07-28T20:01:00.932Z,20.90
2018-07-28T20:03:32.097Z,21.00
2018-07-28T20:06:03.533Z,20.80
2018-07-28T20:08:33.470Z,20.60
2018-07-28T20:11:02.246Z,20.60
2018-07-28T20:13:30.771Z,20.70
2018-07-28T20:15:59.695Z,20.50
2018-07-28T20:18:28.164Z,20.40
2018-07-28T20:20:56.638Z,20.40
2018-07-28T20:23:25.007Z,20.50
2018-07-28T20:25:53.606Z,20.30
2018-07-28T20:28:22.151Z,20.30
2018-07-28T20:30:56.042Z,20.20
2018-07-28T20:33:24.471Z,20.20
2018-07-28T20:35:52.898Z,20.00
2018-07-28T20:38:21.705Z,19.90
2018-07-28T20:40:50.364Z,19.90
2018-07-28T20:43:18.782Z,19.90
2018-07-28T20:45:47.155Z,20.10
2018-07-28T20:48:15.660Z,20.10
2018-07-28T20:50:44.176Z,20.10
2018-07-28T20:53:12.546Z,20.10
2018-07-28T20:55:41.419Z,20.10
2018-07-28T20:58:11.323Z,20.10
2018-07-28T21:00:39.735Z,20.10
2018-07-28T21:03:08.198Z,20.00
2018-07-28T21:05:36.720Z,20.00
2018-07-28T21:08:05.221Z,20.00
2018-07-28T21:10:33.630Z,20.20
2018-07-28T21:13:03.319Z,20.30
2018-07-28T21:17:59.859Z,19.90
2018-07-28T21:20:28.276Z,19.90
2018-07-28T21:22:56.708Z,19.80
2018-07-28T21:25:25.061Z,19.80
2018-07-28T21:27:53.491Z,20.00
2018-07-28T21:30:21.866Z,20.10
2018-07-28T21:32:51.521Z,19.90
2018-07-28T21:35:19.995Z,19.80
2018-07-28T21:37:48.446Z,19.70
2018-07-28T21:40:16.846Z,19.70
2018-07-28T21:42:45.299Z,19.70
2018-07-28T21:45:13.708Z,19.60
2018-07-28T21:47:42.103Z,19.60
2018-07-28T21:50:10.549Z,19.60
2018-07-28T21:52:38.938Z,19.80
2018-07-28T21:55:07.275Z,19.70
2018-07-28T21:57:35.740Z,19.60
2018-07-28T22:00:05.913Z,19.50
2018-07-28T22:02:34.331Z,19.70
2018-07-28T22:05:02.918Z,19.60
2018-07-28T22:07:31.557Z,19.40
2018-07-28T22:09:59.901Z,19.30
2018-07-28T22:12:28.615Z,19.50
2018-07-28T22:14:57.026Z,19.40
2018-07-28T22:17:25.451Z,19.30
2018-07-28T22:19:53.946Z,19.30
2018-07-28T22:22:22.266Z,19.20
2018-07-28T22:24:50.657Z,19.40
2018-07-28T22:27:19.302Z,19.30
2018-07-28T22:29:47.688Z,19.20
2018-07-28T22:32:16.109Z,19.20
2018-07-28T22:34:44.484Z,19.10
2018-07-28T22:37:12.912Z,19.10
2018-07-28T22:39:41.267Z,19.10
2018-07-28T22:42:09.794Z,19.00
2018-07-28T22:44:38.341Z,19.20
2018-07-28T22:47:06.922Z,19.10
2018-07-28T22:49:35.401Z,19.00
2018-07-28T22:52:03.788Z,18.90
2018-07-28T22:54:33.648Z,19.10
2018-07-28T22:57:02.086Z,19.00
2018-07-28T22:59:30.502Z,18.90
2018-07-28T23:01:58.853Z,18.90
2018-07-28T23:06:55.372Z,18.80
2018-07-28T23:09:23.684Z,18.70
2018-07-28T23:11:52.179Z,18.70
2018-07-28T23:14:20.842Z,18.70
2018-07-28T23:16:49.251Z,18.60
2018-07-28T23:19:17.635Z,18.60
2018-07-28T23:21:46.109Z,18.60
2018-07-28T23:24:14.559Z,18.60
2018-07-28T23:26:43.096Z,18.60
2018-07-28T23:29:11.450Z,18.50
2018-07-28T23:31:39.825Z,18.70
2018-07-28T23:34:08.259Z,18.70
2018-07-28T23:36:36.633Z,18.60
2018-07-28T23:39:06.952Z,18.50
2018-07-28T23:41:35.388Z,18.70
2018-07-28T23:44:03.716Z,18.60
2018-07-28T23:46:32.154Z,18.50
2018-07-28T23:49:00.626Z,18.50
2018-07-28T23:51:28.991Z,18.50
2018-07-28T23:53:58.763Z,18.40
2018-07-28T23:56:27.423Z,18.40
2018-07-28T23:58:56.177Z,18.40
